sensor_id;sensor_type;location;lat;lon;timestamp;P1;durP1;ratioP1;P2;durP2;ratioP2
27746;SDS011;15138;51.012;4.692;2023-05-13T00:00:47;6.78;;;3.63;;
27746;SDS011;15138;51.012;4.692;2023-05-13T00:03:15;8.27;;;3.35;;
27746;SDS011;15138;51.012;4.692;2023-05-13T00:05:45;6.35;;;4.30;;
27746;SDS011;15138;51.012;4.692;2023-05-13T00:08:13;5.72;;;4.85;;
27746;SDS011;15138;51.012;4.692;2023-05-13T00:10:42;7.43;;;4.78;;
27746;SDS011;15138;51.012;4.692;2023-05-13T00:13:10;8.57;;;4.93;;
27746;SDS011;15138;51.012;4.692;2023-05-13T00:15:39;7.78;;;4.78;;
27746;SDS011;15138;51.012;4.692;2023-05-13T00:18:07;6.72;;;4.18;;
27746;SDS011;15138;51.012;4.692;2023-05-13T00:20:36;8.70;;;5.07;;
27746;SDS011;15138;51.012;4.692;2023-05-13T00:23:06;5.88;;;5.05;;
27746;SDS011;15138;51.012;4.692;2023-05-13T00:25:34;6.88;;;3.60;;
27746;SDS011;15138;51.012;4.692;2023-05-13T00:28:02;4.57;;;3.40;;
27746;SDS011;15138;51.012;4.692;2023-05-13T00:30:31;4.50;;;3.42;;
27746;SDS011;15138;51.012;4.692;2023-05-13T00:32:59;6.43;;;3.42;;
27746;SDS011;15138;51.012;4.692;2023-05-13T00:35:28;7.63;;;3.80;;
27746;SDS011;15138;51.012;4.692;2023-05-13T00:37:56;8.65;;;3.67;;
27746;SDS011;15138;51.012;4.692;2023-05-13T00:40:26;4.95;;;3.60;;
27746;SDS011;15138;51.012;4.692;2023-05-13T00:42:54;4.50;;;3.95;;
27746;SDS011;15138;51.012;4.692;2023-05-13T00:45:23;9.07;;;5.85;;
27746;SDS011;15138;51.012;4.692;2023-05-13T00:47:51;8.38;;;5.03;;
27746;SDS011;15138;51.012;4.692;2023-05-13T00:50:19;4.38;;;3.45;;
27746;SDS011;15138;51.012;4.692;2023-05-13T00:52:49;7.63;;;5.25;;
27746;SDS011;15138;51.012;4.692;2023-05-13T00:55:17;6.28;;;3.95;;
27746;SDS011;15138;51.012;4.692;2023-05-13T00:57:47;8.82;;;5.60;;
27746;SDS011;15138;51.012;4.692;2023-05-13T01:00:23;7.38;;;5.85;;
27746;SDS011;15138;51.012;4.692;2023-05-13T01:02:53;8.70;;;6.20;;
27746;SDS011;15138;51.012;4.692;2023-05-13T01:05:25;5.63;;;4.05;;
27746;SDS011;15138;51.012;4.692;2023-05-13T01:08:00;6.97;;;4.68;;
27746;SDS011;15138;51.012;4.692;2023-05-13T01:10:33;7.85;;;5.95;;
27746;SDS011;15138;51.012;4.692;2023-05-13T01:13:06;9.90;;;5.38;;
27746;SDS011;15138;51.012;4.692;2023-05-13T01:15:36;8.07;;;6.13;;
27746;SDS011;15138;51.012;4.692;2023-05-13T01:18:08;9.57;;;6.68;;
27746;SDS011;15138;51.012;4.692;2023-05-13T01:20:39;8.63;;;6.75;;
27746;SDS011;15138;51.012;4.692;2023-05-13T01:23:10;9.38;;;4.93;;
27746;SDS011;15138;51.012;4.692;2023-05-13T01:25:39;10.40;;;7.18;;
27746;SDS011;15138;51.012;4.692;2023-05-13T01:28:07;8.82;;;5.50;;
27746;SDS011;15138;51.012;4.692;2023-05-13T01:30:36;5.55;;;4.72;;
27746;SDS011;15138;51.012;4.692;2023-05-13T01:33:04;7.53;;;4.00;;
27746;SDS011;15138;51.012;4.692;2023-05-13T01:35:33;5.60;;;4.05;;
27746;SDS011;15138;51.012;4.692;2023-05-13T01:38:01;5.55;;;4.45;;
27746;SDS011;15138;51.012;4.692;2023-05-13T01:40:32;6.63;;;4.47;;
27746;SDS011;15138;51.012;4.692;2023-05-13T01:43:01;9.02;;;5.32;;
27746;SDS011;15138;51.012;4.692;2023-05-13T01:45:29;6.25;;;5.30;;
27746;SDS011;15138;51.012;4.692;2023-05-13T01:47:58;6.65;;;4.28;;
27746;SDS011;15138;51.012;4.692;2023-05-13T01:50:27;5.80;;;4.10;;
27746;SDS011;15138;51.012;4.692;2023-05-13T01:52:55;5.82;;;3.72;;
27746;SDS011;15138;51.012;4.692;2023-05-13T01:55:24;6.82;;;3.80;;
27746;SDS011;15138;51.012;4.692;2023-05-13T01:57:53;6.65;;;4.25;;
27746;SDS011;15138;51.012;4.692;2023-05-13T02:00:22;10.73;;;6.60;;
27746;SDS011;15138;51.012;4.692;2023-05-13T02:02:50;7.10;;;5.68;;
27746;SDS011;15138;51.012;4.692;2023-05-13T02:05:19;7.05;;;5.30;;
27746;SDS011;15138;51.012;4.692;2023-05-13T02:07:47;8.15;;;5.03;;
27746;SDS011;15138;51.012;4.692;2023-05-13T02:10:16;7.00;;;4.10;;
27746;SDS011;15138;51.012;4.692;2023-05-13T02:12:45;6.75;;;4.90;;
27746;SDS011;15138;51.012;4.692;2023-05-13T02:15:15;6.68;;;5.55;;
27746;SDS011;15138;51.012;4.692;2023-05-13T02:17:43;13.43;;;6.70;;
27746;SDS011;15138;51.012;4.692;2023-05-13T02:20:12;9.18;;;6.50;;
27746;SDS011;15138;51.012;4.692;2023-05-13T02:22:41;14.77;;;7.53;;
27746;SDS011;15138;51.012;4.692;2023-05-13T02:25:09;9.20;;;6.95;;
27746;SDS011;15138;51.012;4.692;2023-05-13T02:27:38;8.60;;;5.88;;
27746;SDS011;15138;51.012;4.692;2023-05-13T02:30:06;6.60;;;4.55;;
27746;SDS011;15138;51.012;4.692;2023-05-13T02:32:36;10.70;;;8.05;;
27746;SDS011;15138;51.012;4.692;2023-05-13T02:35:08;15.38;;;8.68;;
27746;SDS011;15138;51.012;4.692;2023-05-13T02:37:37;12.00;;;9.25;;
27746;SDS011;15138;51.012;4.692;2023-05-13T02:40:05;12.43;;;7.63;;
27746;SDS011;15138;51.012;4.692;2023-05-13T02:42:34;8.65;;;6.05;;
27746;SDS011;15138;51.012;4.692;2023-05-13T02:45:02;7.82;;;5.30;;
27746;SDS011;15138;51.012;4.692;2023-05-13T02:47:31;10.10;;;4.80;;
27746;SDS011;15138;51.012;4.692;2023-05-13T02:50:02;11.48;;;5.13;;
27746;SDS011;15138;51.012;4.692;2023-05-13T02:52:31;5.90;;;4.30;;
27746;SDS011;15138;51.012;4.692;2023-05-13T02:55:01;8.13;;;4.90;;
27746;SDS011;15138;51.012;4.692;2023-05-13T02:57:29;7.70;;;5.13;;
27746;SDS011;15138;51.012;4.692;2023-05-13T02:59:58;7.55;;;4.32;;
27746;SDS011;15138;51.012;4.692;2023-05-13T03:02:26;5.72;;;4.25;;
27746;SDS011;15138;51.012;4.692;2023-05-13T03:04:54;8.48;;;5.45;;
27746;SDS011;15138;51.012;4.692;2023-05-13T03:07:24;6.40;;;4.60;;
27746;SDS011;15138;51.012;4.692;2023-05-13T03:09:53;9.20;;;6.38;;
27746;SDS011;15138;51.012;4.692;2023-05-13T03:12:21;7.72;;;4.82;;
27746;SDS011;15138;51.012;4.692;2023-05-13T03:14:50;6.50;;;4.35;;
27746;SDS011;15138;51.012;4.692;2023-05-13T03:17:18;5.38;;;4.32;;
27746;SDS011;15138;51.012;4.692;2023-05-13T03:19:46;5.13;;;4.30;;
27746;SDS011;15138;51.012;4.692;2023-05-13T03:22:15;6.20;;;4.72;;
27746;SDS011;15138;51.012;4.692;2023-05-13T03:24:44;8.10;;;4.30;;
27746;SDS011;15138;51.012;4.692;2023-05-13T03:27:13;7.82;;;4.55;;
27746;SDS011;15138;51.012;4.692;2023-05-13T03:29:41;9.43;;;5.18;;
27746;SDS011;15138;51.012;4.692;2023-05-13T03:32:10;5.47;;;4.50;;
27746;SDS011;15138;51.012;4.692;2023-05-13T03:34:38;8.13;;;4.43;;
27746;SDS011;15138;51.012;4.692;2023-05-13T03:37:06;5.25;;;4.07;;
27746;SDS011;15138;51.012;4.692;2023-05-13T03:39:35;11.00;;;8.80;;
27746;SDS011;15138;51.012;4.692;2023-05-13T03:42:05;12.65;;;8.90;;
27746;SDS011;15138;51.012;4.692;2023-05-13T03:44:33;13.10;;;8.65;;
27746;SDS011;15138;51.012;4.692;2023-05-13T03:47:02;8.68;;;6.10;;
27746;SDS011;15138;51.012;4.692;2023-05-13T03:49:30;5.72;;;4.15;;
27746;SDS011;15138;51.012;4.692;2023-05-13T03:51:59;7.10;;;5.40;;
27746;SDS011;15138;51.012;4.692;2023-05-13T03:54:27;7.38;;;6.07;;
27746;SDS011;15138;51.012;4.692;2023-05-13T03:56:55;5.68;;;4.00;;
27746;SDS011;15138;51.012;4.692;2023-05-13T03:59:25;5.45;;;4.00;;
27746;SDS011;15138;51.012;4.692;2023-05-13T04:01:53;6.65;;;5.18;;
27746;SDS011;15138;51.012;4.692;2023-05-13T04:04:22;14.95;;;8.30;;
27746;SDS011;15138;51.012;4.692;2023-05-13T04:06:50;5.65;;;4.40;;
27746;SDS011;15138;51.012;4.692;2023-05-13T04:09:19;8.30;;;4.57;;
27746;SDS011;15138;51.012;4.692;2023-05-13T04:11:47;5.10;;;4.25;;
27746;SDS011;15138;51.012;4.692;2023-05-13T04:14:16;4.88;;;4.10;;
27746;SDS011;15138;51.012;4.692;2023-05-13T04:16:46;7.32;;;4.55;;
27746;SDS011;15138;51.012;4.692;2023-05-13T04:19:14;6.57;;;5.13;;
27746;SDS011;15138;51.012;4.692;2023-05-13T04:21:42;5.03;;;4.28;;
27746;SDS011;15138;51.012;4.692;2023-05-13T04:24:11;5.85;;;4.70;;
27746;SDS011;15138;51.012;4.692;2023-05-13T04:26:39;6.60;;;4.70;;
27746;SDS011;15138;51.012;4.692;2023-05-13T04:29:07;5.60;;;4.43;;
27746;SDS011;15138;51.012;4.692;2023-05-13T04:31:36;4.88;;;4.20;;
27746;SDS011;15138;51.012;4.692;2023-05-13T04:34:06;6.43;;;4.80;;
27746;SDS011;15138;51.012;4.692;2023-05-13T04:36:34;6.18;;;4.75;;
27746;SDS011;15138;51.012;4.692;2023-05-13T04:39:02;7.95;;;5.35;;
27746;SDS011;15138;51.012;4.692;2023-05-13T04:41:31;7.32;;;5.47;;
27746;SDS011;15138;51.012;4.692;2023-05-13T04:43:59;6.20;;;4.78;;
27746;SDS011;15138;51.012;4.692;2023-05-13T04:46:28;7.38;;;5.38;;
27746;SDS011;15138;51.012;4.692;2023-05-13T04:48:56;10.20;;;5.05;;
27746;SDS011;15138;51.012;4.692;2023-05-13T04:51:26;6.57;;;5.32;;
27746;SDS011;15138;51.012;4.692;2023-05-13T04:53:55;8.02;;;6.88;;
27746;SDS011;15138;51.012;4.692;2023-05-13T04:56:23;9.85;;;5.30;;
27746;SDS011;15138;51.012;4.692;2023-05-13T04:58:52;7.05;;;4.63;;
27746;SDS011;15138;51.012;4.692;2023-05-13T05:01:20;8.10;;;5.97;;
27746;SDS011;15138;51.012;4.692;2023-05-13T05:03:49;13.60;;;8.23;;
27746;SDS011;15138;51.012;4.692;2023-05-13T05:06:17;12.95;;;9.13;;
27746;SDS011;15138;51.012;4.692;2023-05-13T05:08:48;14.98;;;9.13;;
27746;SDS011;15138;51.012;4.692;2023-05-13T05:11:17;15.15;;;10.32;;
27746;SDS011;15138;51.012;4.692;2023-05-13T05:13:45;13.75;;;6.82;;
27746;SDS011;15138;51.012;4.692;2023-05-13T05:16:13;15.90;;;10.13;;
27746;SDS011;15138;51.012;4.692;2023-05-13T05:18:42;12.63;;;10.30;;
27746;SDS011;15138;51.012;4.692;2023-05-13T05:21:10;15.40;;;10.25;;
27746;SDS011;15138;51.012;4.692;2023-05-13T05:23:39;16.08;;;10.15;;
27746;SDS011;15138;51.012;4.692;2023-05-13T05:26:08;16.17;;;9.50;;
27746;SDS011;15138;51.012;4.692;2023-05-13T05:28:37;15.70;;;10.13;;
27746;SDS011;15138;51.012;4.692;2023-05-13T05:31:06;9.82;;;7.38;;
27746;SDS011;15138;51.012;4.692;2023-05-13T05:33:35;14.43;;;9.40;;
27746;SDS011;15138;51.012;4.692;2023-05-13T05:36:03;15.18;;;10.05;;
27746;SDS011;15138;51.012;4.692;2023-05-13T05:38:32;11.95;;;7.32;;
27746;SDS011;15138;51.012;4.692;2023-05-13T05:41:00;17.10;;;10.60;;
27746;SDS011;15138;51.012;4.692;2023-05-13T05:43:30;18.95;;;11.13;;
27746;SDS011;15138;51.012;4.692;2023-05-13T05:45:58;13.57;;;9.15;;
27746;SDS011;15138;51.012;4.692;2023-05-13T05:48:27;17.52;;;10.75;;
27746;SDS011;15138;51.012;4.692;2023-05-13T05:50:58;11.82;;;8.13;;
27746;SDS011;15138;51.012;4.692;2023-05-13T05:53:26;17.10;;;9.82;;
27746;SDS011;15138;51.012;4.692;2023-05-13T05:55:55;17.80;;;10.63;;
27746;SDS011;15138;51.012;4.692;2023-05-13T05:58:23;12.90;;;8.82;;
27746;SDS011;15138;51.012;4.692;2023-05-13T06:00:53;10.85;;;7.57;;
27746;SDS011;15138;51.012;4.692;2023-05-13T06:03:23;8.57;;;6.45;;
27746;SDS011;15138;51.012;4.692;2023-05-13T06:05:52;10.48;;;7.03;;
27746;SDS011;15138;51.012;4.692;2023-05-13T06:08:20;15.55;;;8.73;;
27746;SDS011;15138;51.012;4.692;2023-05-13T06:10:55;14.43;;;9.47;;
27746;SDS011;15138;51.012;4.692;2023-05-13T06:13:24;16.42;;;8.07;;
27746;SDS011;15138;51.012;4.692;2023-05-13T06:15:54;10.40;;;7.78;;
27746;SDS011;15138;51.012;4.692;2023-05-13T06:18:22;12.32;;;7.88;;
27746;SDS011;15138;51.012;4.692;2023-05-13T06:20:51;13.68;;;8.52;;
27746;SDS011;15138;51.012;4.692;2023-05-13T06:23:19;14.38;;;8.13;;
27746;SDS011;15138;51.012;4.692;2023-05-13T06:25:47;13.95;;;7.70;;
27746;SDS011;15138;51.012;4.692;2023-05-13T06:28:16;22.52;;;9.40;;
27746;SDS011;15138;51.012;4.692;2023-05-13T06:30:44;14.55;;;9.15;;
27746;SDS011;15138;51.012;4.692;2023-05-13T06:33:14;14.52;;;8.52;;
27746;SDS011;15138;51.012;4.692;2023-05-13T06:35:42;15.52;;;8.00;;
27746;SDS011;15138;51.012;4.692;2023-05-13T06:38:14;15.98;;;8.10;;
27746;SDS011;15138;51.012;4.692;2023-05-13T06:40:44;13.20;;;7.30;;
27746;SDS011;15138;51.012;4.692;2023-05-13T06:43:12;14.55;;;8.65;;
27746;SDS011;15138;51.012;4.692;2023-05-13T06:45:41;12.00;;;6.88;;
27746;SDS011;15138;51.012;4.692;2023-05-13T06:48:10;14.82;;;8.80;;
27746;SDS011;15138;51.012;4.692;2023-05-13T06:50:40;13.05;;;8.02;;
27746;SDS011;15138;51.012;4.692;2023-05-13T06:53:08;15.13;;;8.48;;
27746;SDS011;15138;51.012;4.692;2023-05-13T06:55:37;10.27;;;7.43;;
27746;SDS011;15138;51.012;4.692;2023-05-13T06:58:08;14.10;;;7.97;;
27746;SDS011;15138;51.012;4.692;2023-05-13T07:00:36;11.40;;;7.80;;
27746;SDS011;15138;51.012;4.692;2023-05-13T07:03:05;12.73;;;7.55;;
27746;SDS011;15138;51.012;4.692;2023-05-13T07:05:34;14.93;;;8.02;;
27746;SDS011;15138;51.012;4.692;2023-05-13T07:08:04;15.25;;;6.68;;
27746;SDS011;15138;51.012;4.692;2023-05-13T07:10:34;7.97;;;6.43;;
27746;SDS011;15138;51.012;4.692;2023-05-13T07:13:03;13.43;;;7.80;;
27746;SDS011;15138;51.012;4.692;2023-05-13T07:15:31;13.85;;;7.55;;
27746;SDS011;15138;51.012;4.692;2023-05-13T07:18:00;12.98;;;7.25;;
27746;SDS011;15138;51.012;4.692;2023-05-13T07:20:28;13.05;;;8.38;;
27746;SDS011;15138;51.012;4.692;2023-05-13T07:22:57;11.30;;;7.38;;
27746;SDS011;15138;51.012;4.692;2023-05-13T07:25:26;11.95;;;8.13;;
27746;SDS011;15138;51.012;4.692;2023-05-13T07:27:55;11.50;;;8.60;;
27746;SDS011;15138;51.012;4.692;2023-05-13T07:30:23;12.43;;;7.57;;
27746;SDS011;15138;51.012;4.692;2023-05-13T07:32:52;14.43;;;6.82;;
27746;SDS011;15138;51.012;4.692;2023-05-13T07:35:20;9.13;;;6.40;;
27746;SDS011;15138;51.012;4.692;2023-05-13T07:37:49;14.85;;;7.57;;
27746;SDS011;15138;51.012;4.692;2023-05-13T07:40:17;12.93;;;7.68;;
27746;SDS011;15138;51.012;4.692;2023-05-13T07:42:48;11.85;;;8.38;;
27746;SDS011;15138;51.012;4.692;2023-05-13T07:45:16;15.85;;;8.70;;
27746;SDS011;15138;51.012;4.692;2023-05-13T07:47:45;18.67;;;8.85;;
27746;SDS011;15138;51.012;4.692;2023-05-13T07:50:14;15.38;;;8.30;;
27746;SDS011;15138;51.012;4.692;2023-05-13T07:52:42;12.68;;;7.78;;
27746;SDS011;15138;51.012;4.692;2023-05-13T07:55:14;10.05;;;7.25;;
27746;SDS011;15138;51.012;4.692;2023-05-13T07:57:42;11.07;;;7.43;;
27746;SDS011;15138;51.012;4.692;2023-05-13T08:00:12;12.27;;;7.35;;
27746;SDS011;15138;51.012;4.692;2023-05-13T08:02:42;14.65;;;6.82;;
27746;SDS011;15138;51.012;4.692;2023-05-13T08:05:10;11.75;;;7.85;;
27746;SDS011;15138;51.012;4.692;2023-05-13T08:07:39;13.27;;;8.95;;
27746;SDS011;15138;51.012;4.692;2023-05-13T08:10:07;12.98;;;7.97;;
27746;SDS011;15138;51.012;4.692;2023-05-13T08:12:36;10.18;;;7.10;;
27746;SDS011;15138;51.012;4.692;2023-05-13T08:15:06;16.55;;;8.70;;
27746;SDS011;15138;51.012;4.692;2023-05-13T08:17:36;13.35;;;6.25;;
27746;SDS011;15138;51.012;4.692;2023-05-13T08:20:06;13.65;;;7.55;;
27746;SDS011;15138;51.012;4.692;2023-05-13T08:22:36;15.43;;;7.65;;
27746;SDS011;15138;51.012;4.692;2023-05-13T08:25:05;14.70;;;6.68;;
27746;SDS011;15138;51.012;4.692;2023-05-13T08:27:33;10.55;;;6.80;;
27746;SDS011;15138;51.012;4.692;2023-05-13T08:30:02;14.02;;;8.10;;
27746;SDS011;15138;51.012;4.692;2023-05-13T08:32:30;12.25;;;6.72;;
27746;SDS011;15138;51.012;4.692;2023-05-13T08:35:00;11.68;;;6.40;;
27746;SDS011;15138;51.012;4.692;2023-05-13T08:37:28;9.32;;;7.20;;
27746;SDS011;15138;51.012;4.692;2023-05-13T08:39:57;11.68;;;7.75;;
27746;SDS011;15138;51.012;4.692;2023-05-13T08:42:27;11.05;;;6.80;;
27746;SDS011;15138;51.012;4.692;2023-05-13T08:44:55;12.77;;;8.77;;
27746;SDS011;15138;51.012;4.692;2023-05-13T08:47:25;12.85;;;6.82;;
27746;SDS011;15138;51.012;4.692;2023-05-13T08:50:00;12.75;;;8.45;;
27746;SDS011;15138;51.012;4.692;2023-05-13T08:52:28;10.82;;;6.97;;
27746;SDS011;15138;51.012;4.692;2023-05-13T08:54:58;16.63;;;7.60;;
27746;SDS011;15138;51.012;4.692;2023-05-13T08:57:27;12.23;;;7.90;;
27746;SDS011;15138;51.012;4.692;2023-05-13T08:59:55;13.23;;;7.82;;
27746;SDS011;15138;51.012;4.692;2023-05-13T09:02:24;13.75;;;8.75;;
27746;SDS011;15138;51.012;4.692;2023-05-13T09:04:53;8.43;;;6.60;;
27746;SDS011;15138;51.012;4.692;2023-05-13T09:07:23;10.38;;;7.65;;
27746;SDS011;15138;51.012;4.692;2023-05-13T09:09:52;11.68;;;7.65;;
27746;SDS011;15138;51.012;4.692;2023-05-13T09:15:07;11.77;;;8.35;;
27746;SDS011;15138;51.012;4.692;2023-05-13T09:17:36;9.75;;;7.45;;
27746;SDS011;15138;51.012;4.692;2023-05-13T09:20:08;16.58;;;7.93;;
27746;SDS011;15138;51.012;4.692;2023-05-13T09:22:41;11.18;;;7.07;;
27746;SDS011;15138;51.012;4.692;2023-05-13T09:25:12;13.27;;;7.18;;
27746;SDS011;15138;51.012;4.692;2023-05-13T09:27:41;11.02;;;6.95;;
27746;SDS011;15138;51.012;4.692;2023-05-13T09:30:10;12.05;;;7.53;;
27746;SDS011;15138;51.012;4.692;2023-05-13T09:32:39;6.78;;;5.30;;
27746;SDS011;15138;51.012;4.692;2023-05-13T09:35:08;12.80;;;6.95;;
27746;SDS011;15138;51.012;4.692;2023-05-13T09:37:37;11.75;;;6.53;;
27746;SDS011;15138;51.012;4.692;2023-05-13T09:40:09;10.52;;;6.13;;
27746;SDS011;15138;51.012;4.692;2023-05-13T09:42:39;12.32;;;6.03;;
27746;SDS011;15138;51.012;4.692;2023-05-13T09:45:08;10.05;;;5.75;;
27746;SDS011;15138;51.012;4.692;2023-05-13T09:47:37;9.52;;;5.45;;
27746;SDS011;15138;51.012;4.692;2023-05-13T09:50:06;12.40;;;4.43;;
27746;SDS011;15138;51.012;4.692;2023-05-13T09:52:35;9.60;;;5.10;;
27746;SDS011;15138;51.012;4.692;2023-05-13T09:55:07;12.35;;;4.97;;
27746;SDS011;15138;51.012;4.692;2023-05-13T09:57:36;10.88;;;5.30;;
27746;SDS011;15138;51.012;4.692;2023-05-13T10:00:06;9.27;;;4.85;;
27746;SDS011;15138;51.012;4.692;2023-05-13T10:02:46;13.18;;;5.72;;
27746;SDS011;15138;51.012;4.692;2023-05-13T10:05:15;11.55;;;4.03;;
27746;SDS011;15138;51.012;4.692;2023-05-13T10:07:43;15.90;;;3.90;;
27746;SDS011;15138;51.012;4.692;2023-05-13T10:10:13;10.75;;;5.57;;
27746;SDS011;15138;51.012;4.692;2023-05-13T10:12:41;8.73;;;3.85;;
27746;SDS011;15138;51.012;4.692;2023-05-13T10:15:09;6.68;;;4.65;;
27746;SDS011;15138;51.012;4.692;2023-05-13T10:17:38;8.70;;;4.53;;
27746;SDS011;15138;51.012;4.692;2023-05-13T10:20:07;13.00;;;5.78;;
27746;SDS011;15138;51.012;4.692;2023-05-13T10:22:36;12.20;;;5.53;;
27746;SDS011;15138;51.012;4.692;2023-05-13T10:25:05;10.20;;;4.82;;
27746;SDS011;15138;51.012;4.692;2023-05-13T10:27:35;12.90;;;5.88;;
27746;SDS011;15138;51.012;4.692;2023-05-13T10:30:05;10.00;;;5.65;;
27746;SDS011;15138;51.012;4.692;2023-05-13T10:32:36;7.68;;;5.38;;
27746;SDS011;15138;51.012;4.692;2023-05-13T10:35:06;7.03;;;5.68;;
27746;SDS011;15138;51.012;4.692;2023-05-13T10:43:27;10.13;;;5.18;;
27746;SDS011;15138;51.012;4.692;2023-05-13T10:45:56;7.40;;;4.07;;
27746;SDS011;15138;51.012;4.692;2023-05-13T10:48:25;11.20;;;4.95;;
27746;SDS011;15138;51.012;4.692;2023-05-13T10:50:54;11.30;;;4.40;;
27746;SDS011;15138;51.012;4.692;2023-05-13T10:53:24;7.57;;;4.32;;
27746;SDS011;15138;51.012;4.692;2023-05-13T10:55:53;5.85;;;4.18;;
27746;SDS011;15138;51.012;4.692;2023-05-13T10:58:28;10.05;;;4.78;;
27746;SDS011;15138;51.012;4.692;2023-05-13T11:01:16;7.20;;;4.40;;
27746;SDS011;15138;51.012;4.692;2023-05-13T11:03:51;8.73;;;3.90;;
27746;SDS011;15138;51.012;4.692;2023-05-13T11:06:20;6.22;;;3.78;;
27746;SDS011;15138;51.012;4.692;2023-05-13T11:08:50;6.68;;;4.40;;
27746;SDS011;15138;51.012;4.692;2023-05-13T11:11:22;7.43;;;4.20;;
27746;SDS011;15138;51.012;4.692;2023-05-13T11:13:53;8.55;;;3.90;;
27746;SDS011;15138;51.012;4.692;2023-05-13T11:16:22;11.02;;;3.80;;
27746;SDS011;15138;51.012;4.692;2023-05-13T11:18:51;6.68;;;3.83;;
27746;SDS011;15138;51.012;4.692;2023-05-13T11:21:27;7.75;;;4.20;;
27746;SDS011;15138;51.012;4.692;2023-05-13T11:23:56;5.72;;;3.70;;
27746;SDS011;15138;51.012;4.692;2023-05-13T11:26:25;6.63;;;3.78;;
27746;SDS011;15138;51.012;4.692;2023-05-13T11:31:45;7.95;;;3.63;;
27746;SDS011;15138;51.012;4.692;2023-05-13T11:34:15;4.63;;;3.30;;
27746;SDS011;15138;51.012;4.692;2023-05-13T11:36:44;6.18;;;3.53;;
27746;SDS011;15138;51.012;4.692;2023-05-13T11:39:13;7.78;;;3.55;;
27746;SDS011;15138;51.012;4.692;2023-05-13T11:41:43;8.32;;;3.42;;
27746;SDS011;15138;51.012;4.692;2023-05-13T11:44:12;8.20;;;3.78;;
27746;SDS011;15138;51.012;4.692;2023-05-13T11:46:49;6.25;;;3.35;;
27746;SDS011;15138;51.012;4.692;2023-05-13T11:49:31;8.07;;;3.63;;
27746;SDS011;15138;51.012;4.692;2023-05-13T11:51:59;7.43;;;3.40;;
27746;SDS011;15138;51.012;4.692;2023-05-13T11:54:28;2.80;;;1.83;;
27746;SDS011;15138;51.012;4.692;2023-05-13T11:56:56;12.55;;;3.58;;
27746;SDS011;15138;51.012;4.692;2023-05-13T11:59:25;7.13;;;2.97;;
27746;SDS011;15138;51.012;4.692;2023-05-13T12:02:05;10.55;;;4.13;;
27746;SDS011;15138;51.012;4.692;2023-05-13T12:04:33;9.10;;;3.28;;
27746;SDS011;15138;51.012;4.692;2023-05-13T12:07:02;11.05;;;3.13;;
27746;SDS011;15138;51.012;4.692;2023-05-13T12:09:31;8.57;;;3.47;;
27746;SDS011;15138;51.012;4.692;2023-05-13T12:11:59;6.78;;;3.38;;
27746;SDS011;15138;51.012;4.692;2023-05-13T12:14:28;6.15;;;2.90;;
27746;SDS011;15138;51.012;4.692;2023-05-13T12:16:58;4.07;;;3.10;;
27746;SDS011;15138;51.012;4.692;2023-05-13T12:19:28;7.97;;;3.45;;
27746;SDS011;15138;51.012;4.692;2023-05-13T12:21:57;6.68;;;3.05;;
27746;SDS011;15138;51.012;4.692;2023-05-13T12:24:31;9.15;;;2.85;;
27746;SDS011;15138;51.012;4.692;2023-05-13T12:27:03;4.63;;;2.65;;
27746;SDS011;15138;51.012;4.692;2023-05-13T12:29:39;6.07;;;2.65;;
27746;SDS011;15138;51.012;4.692;2023-05-13T12:32:07;7.32;;;2.40;;
27746;SDS011;15138;51.012;4.692;2023-05-13T12:34:38;8.77;;;2.67;;
27746;SDS011;15138;51.012;4.692;2023-05-13T12:37:09;19.80;;;3.60;;
27746;SDS011;15138;51.012;4.692;2023-05-13T12:39:38;6.38;;;2.70;;
27746;SDS011;15138;51.012;4.692;2023-05-13T12:42:14;4.72;;;2.70;;
27746;SDS011;15138;51.012;4.692;2023-05-13T12:44:43;5.03;;;2.33;;
27746;SDS011;15138;51.012;4.692;2023-05-13T12:47:12;5.65;;;2.47;;
27746;SDS011;15138;51.012;4.692;2023-05-13T12:49:52;4.53;;;2.58;;
27746;SDS011;15138;51.012;4.692;2023-05-13T12:52:20;5.93;;;2.67;;
27746;SDS011;15138;51.012;4.692;2023-05-13T12:54:49;7.65;;;2.80;;
27746;SDS011;15138;51.012;4.692;2023-05-13T12:57:17;3.88;;;2.60;;
27746;SDS011;15138;51.012;4.692;2023-05-13T12:59:46;7.30;;;2.67;;
27746;SDS011;15138;51.012;4.692;2023-05-13T13:02:15;7.57;;;2.63;;
27746;SDS011;15138;51.012;4.692;2023-05-13T13:04:43;10.52;;;2.47;;
27746;SDS011;15138;51.012;4.692;2023-05-13T13:07:13;18.83;;;4.75;;
27746;SDS011;15138;51.012;4.692;2023-05-13T13:09:41;8.55;;;2.83;;
27746;SDS011;15138;51.012;4.692;2023-05-13T13:12:09;10.23;;;2.85;;
27746;SDS011;15138;51.012;4.692;2023-05-13T13:14:38;5.30;;;2.13;;
27746;SDS011;15138;51.012;4.692;2023-05-13T13:17:07;7.07;;;2.22;;
27746;SDS011;15138;51.012;4.692;2023-05-13T13:19:35;5.88;;;2.47;;
27746;SDS011;15138;51.012;4.692;2023-05-13T13:22:03;7.95;;;2.55;;
27746;SDS011;15138;51.012;4.692;2023-05-13T13:24:33;6.80;;;2.80;;
27746;SDS011;15138;51.012;4.692;2023-05-13T13:27:02;4.90;;;2.40;;
27746;SDS011;15138;51.012;4.692;2023-05-13T13:29:30;3.97;;;2.50;;
27746;SDS011;15138;51.012;4.692;2023-05-13T13:31:59;8.07;;;2.20;;
27746;SDS011;15138;51.012;4.692;2023-05-13T13:34:27;5.50;;;2.53;;
27746;SDS011;15138;51.012;4.692;2023-05-13T13:36:56;8.80;;;3.20;;
27746;SDS011;15138;51.012;4.692;2023-05-13T13:39:24;3.75;;;2.63;;
27746;SDS011;15138;51.012;4.692;2023-05-13T13:41:54;7.05;;;2.50;;
27746;SDS011;15138;51.012;4.692;2023-05-13T13:44:23;7.05;;;2.47;;
27746;SDS011;15138;51.012;4.692;2023-05-13T13:46:53;10.38;;;2.45;;
27746;SDS011;15138;51.012;4.692;2023-05-13T13:49:22;4.07;;;2.45;;
27746;SDS011;15138;51.012;4.692;2023-05-13T13:51:50;7.05;;;2.60;;
27746;SDS011;15138;51.012;4.692;2023-05-13T13:54:19;4.30;;;2.60;;
27746;SDS011;15138;51.012;4.692;2023-05-13T13:56:47;4.28;;;2.95;;
27746;SDS011;15138;51.012;4.692;2023-05-13T13:59:17;4.82;;;2.53;;
27746;SDS011;15138;51.012;4.692;2023-05-13T14:01:45;6.55;;;3.20;;
27746;SDS011;15138;51.012;4.692;2023-05-13T14:04:14;17.52;;;3.38;;
27746;SDS011;15138;51.012;4.692;2023-05-13T14:06:45;8.00;;;3.20;;
27746;SDS011;15138;51.012;4.692;2023-05-13T14:09:13;4.82;;;2.25;;
27746;SDS011;15138;51.012;4.692;2023-05-13T14:11:41;5.28;;;2.33;;
27746;SDS011;15138;51.012;4.692;2023-05-13T14:14:10;4.85;;;2.67;;
27746;SDS011;15138;51.012;4.692;2023-05-13T14:16:40;4.47;;;2.20;;
27746;SDS011;15138;51.012;4.692;2023-05-13T14:19:09;7.07;;;2.47;;
27746;SDS011;15138;51.012;4.692;2023-05-13T14:21:38;4.07;;;1.90;;
27746;SDS011;15138;51.012;4.692;2023-05-13T14:24:06;6.00;;;2.80;;
27746;SDS011;15138;51.012;4.692;2023-05-13T14:26:37;5.57;;;2.60;;
27746;SDS011;15138;51.012;4.692;2023-05-13T14:29:05;3.67;;;2.35;;
27746;SDS011;15138;51.012;4.692;2023-05-13T14:31:34;7.20;;;2.75;;
27746;SDS011;15138;51.012;4.692;2023-05-13T14:34:04;4.40;;;2.47;;
27746;SDS011;15138;51.012;4.692;2023-05-13T14:36:33;6.63;;;2.58;;
27746;SDS011;15138;51.012;4.692;2023-05-13T14:39:01;7.07;;;2.88;;
27746;SDS011;15138;51.012;4.692;2023-05-13T14:41:30;8.23;;;2.70;;
27746;SDS011;15138;51.012;4.692;2023-05-13T14:43:58;6.82;;;3.13;;
27746;SDS011;15138;51.012;4.692;2023-05-13T14:46:27;7.65;;;3.15;;
27746;SDS011;15138;51.012;4.692;2023-05-13T14:48:55;7.85;;;3.13;;
27746;SDS011;15138;51.012;4.692;2023-05-13T14:51:25;5.63;;;2.78;;
27746;SDS011;15138;51.012;4.692;2023-05-13T14:53:53;9.00;;;2.10;;
27746;SDS011;15138;51.012;4.692;2023-05-13T14:56:22;8.20;;;2.72;;
27746;SDS011;15138;51.012;4.692;2023-05-13T14:58:51;6.60;;;2.72;;
27746;SDS011;15138;51.012;4.692;2023-05-13T15:01:19;8.15;;;2.92;;
27746;SDS011;15138;51.012;4.692;2023-05-13T15:03:48;4.35;;;2.80;;
27746;SDS011;15138;51.012;4.692;2023-05-13T15:06:16;4.13;;;2.72;;